Woodward, OK (73801)

11:50 PM CST on December 05, 2016 (GMT -0600)
West Woodward | | Change Station

Elev 2188 ft 36.44 °N, 99.52 °W | Updated 15 minutes ago

Scattered Clouds
Scattered Clouds
32 °F
Feels Like 29 °F
N
4
Wind Variable Wind from NNE

Today
High -- | Low -- °F
--% Chance of Precip.
Yesterday
High -- | Low -- °F
Precip. -- in
Pressure 29.79 in
Visibility 7.0 miles
Clouds Scattered Clouds 200 ft
Windchill 29 °F
Dew Point 32 °F
Humidity 100%
Rainfall 0.00 in
Snow Depth Not available.
7:34 AM 5:22 PM
Waxing Crescent, 38% visible
METAR KWWR 060535Z AUTO 03003KT 7SM SCT002 00/00 A2979 RMK AO2
Pressure 29.79 in
Visibility 7.0 miles
Clouds Scattered Clouds 200 ft
Windchill 29 °F
Dew Point 32 °F
Humidity 100%
Rainfall 0.00 in
Snow Depth Not available.
7:34 AM 5:22 PM
Waxing Crescent, 38% visible
METAR KWWR 060535Z AUTO 03003KT 7SM SCT002 00/00 A2979 RMK AO2

10-Day Weather Forecast

Almanac

Astronomy

Dec. 05, 2016 Rise Set
Actual Time
Civil Twilight
Nautical Twilight
Astronomical Twilight
Moon
Length of Visible Light
Length of Day
Tomorrow will be .
, % of the Moon is Illuminated

Today's Extremes

State Highs State Lows

Community

WunderPhotos

Upload Photos

1,955,931 photos uploaded!

WunderBlog® & News

Nearby

Air Quality

  Air Quality AQ Index Pollutant
Not available.

Snow Depth

Station Depth Elevation

Earthquake Activity

City Distance Mag. Time & Date
Minimum magnitude displayed is 2.5.

Coastal Water Temperatures

Place Temperature

Stations

Nearby Weather Stations

Station Location Temp. Windchill Dew Point Humidity Wind Precip. Elev Updated Type
                   

Watches & Warnings

There are currently no watches in effect.